Time;durP1;ratioP1;P1;durP2;ratioP2;P2;SDS_P1;SDS_P2;PMS_P1;PMS_P2;Temp;Humidity;BMP_temperature;BMP_pressure;BME280_temperature;BME280_humidity;BME280_pressure;Samples;Min_cycle;Max_cycle;Signal;HPM_P1;HPM_P2
2024/03/12 00:00:15;;;;;;;8.75;7.93;;;12.10;99.90;;;;;;5052950;28;20240;-77
2024/03/12 00:02:44;;;;;;;9.35;8.00;;;12.10;99.90;;;;;;5052088;28;20228;-77
2024/03/12 00:05:14;;;;;;;10.25;9.07;;;12.10;99.90;;;;;;5052821;28;20220;-77
2024/03/12 00:07:43;;;;;;;10.77;8.63;;;12.10;99.90;;;;;;5051847;28;20240;-77
2024/03/12 00:10:14;;;;;;;10.00;7.85;;;12.10;99.90;;;;;;5042655;28;20228;-77
2024/03/12 00:12:43;;;;;;;12.30;9.65;;;12.10;99.90;;;;;;5037659;28;20229;-77
2024/03/12 00:15:12;;;;;;;12.40;9.98;;;12.10;99.90;;;;;;5032893;28;20308;-77
2024/03/12 00:17:39;;;;;;;11.07;9.80;;;12.10;99.90;;;;;;5032089;28;20260;-77
2024/03/12 00:20:16;;;;;;;10.20;9.20;;;12.10;99.90;;;;;;5032751;28;20514;-77
2024/03/12 00:22:45;;;;;;;10.80;8.85;;;12.10;99.90;;;;;;5042128;28;20224;-77
2024/03/12 00:25:14;;;;;;;10.85;9.77;;;12.10;99.90;;;;;;5052305;28;20255;-77
2024/03/12 00:27:41;;;;;;;10.90;8.25;;;12.10;99.90;;;;;;5051961;28;20711;-77
2024/03/12 00:30:11;;;;;;;11.55;9.23;;;12.10;99.90;;;;;;5052616;28;20229;-77
2024/03/12 00:32:44;;;;;;;10.27;9.05;;;12.10;99.90;;;;;;5047639;28;20228;-77
2024/03/12 00:35:11;;;;;;;12.15;10.25;;;12.10;99.90;;;;;;5052448;28;20308;-77
2024/03/12 00:37:39;;;;;;;11.35;10.20;;;12.10;99.90;;;;;;5052281;28;20350;-77
2024/03/12 00:40:11;;;;;;;12.70;9.35;;;12.10;99.90;;;;;;5052341;28;20224;-77
2024/03/12 00:42:38;;;;;;;14.20;11.05;;;12.10;99.90;;;;;;5051238;28;20674;-77
2024/03/12 00:45:07;;;;;;;11.85;10.02;;;12.10;99.90;;;;;;5052786;28;20574;-77
2024/03/12 00:47:34;;;;;;;13.13;10.52;;;12.10;99.90;;;;;;5050298;28;20225;-77
2024/03/12 00:50:07;;;;;;;11.95;10.50;;;12.10;99.90;;;;;;5050940;28;20231;-77
2024/03/12 00:52:34;;;;;;;11.85;10.63;;;12.10;99.90;;;;;;5039424;28;20742;-77
2024/03/12 00:55:04;;;;;;;14.88;11.55;;;12.10;99.90;;;;;;5033608;28;20316;-77
2024/03/12 00:57:34;;;;;;;11.70;10.50;;;12.00;99.90;;;;;;5055090;28;20229;-77
2024/03/12 01:00:01;;;;;;;12.65;10.60;;;12.00;99.90;;;;;;5046809;28;20221;-77
2024/03/12 01:02:30;;;;;;;14.30;11.27;;;12.00;99.90;;;;;;5035925;28;20295;-77
2024/03/12 01:04:57;;;;;;;14.57;11.73;;;12.00;99.90;;;;;;5035396;28;20619;-77
2024/03/12 01:07:25;;;;;;;15.18;11.73;;;11.90;99.90;;;;;;5035711;28;20229;-77
2024/03/12 01:09:52;;;;;;;22.77;14.60;;;11.90;99.90;;;;;;5054692;28;20225;-77
2024/03/12 01:12:19;;;;;;;20.70;14.25;;;11.90;99.90;;;;;;5054878;28;20221;-77
2024/03/12 01:14:47;;;;;;;17.98;12.60;;;11.80;99.90;;;;;;5045037;28;20221;-77
2024/03/12 01:17:15;;;;;;;16.58;12.70;;;11.80;99.90;;;;;;5041695;28;20236;-77
2024/03/12 01:19:42;;;;;;;16.30;12.60;;;11.80;99.90;;;;;;5055073;28;20239;-77
2024/03/12 01:22:09;;;;;;;15.68;12.18;;;11.80;99.90;;;;;;5049100;28;20224;-77
2024/03/12 01:24:40;;;;;;;14.43;11.85;;;11.70;99.90;;;;;;5055314;28;20236;-77
2024/03/12 01:27:10;;;;;;;14.32;12.27;;;11.70;99.90;;;;;;5054872;28;20570;-77
2024/03/12 01:29:37;;;;;;;15.55;11.20;;;11.70;99.90;;;;;;5055278;28;20678;-77
2024/03/12 01:32:06;;;;;;;14.50;11.85;;;11.70;99.90;;;;;;5049137;28;20220;-77
2024/03/12 01:34:33;;;;;;;17.35;13.57;;;11.70;99.90;;;;;;5054898;28;20248;-77
2024/03/12 01:37:00;;;;;;;15.00;12.40;;;11.60;99.90;;;;;;5054605;28;20564;-77
2024/03/12 01:39:28;;;;;;;20.20;13.68;;;11.60;99.90;;;;;;5054668;28;20221;-77
2024/03/12 01:41:57;;;;;;;15.25;12.48;;;11.60;99.90;;;;;;5054753;28;20556;-77
2024/03/12 01:44:24;;;;;;;12.95;11.55;;;11.60;99.90;;;;;;5055009;28;20232;-77
2024/03/12 01:46:52;;;;;;;14.07;10.65;;;11.50;99.90;;;;;;5054441;28;20305;-77
2024/03/12 01:49:20;;;;;;;19.52;12.20;;;11.50;99.90;;;;;;5054909;28;20278;-77
2024/03/12 01:51:49;;;;;;;16.90;13.77;;;11.50;99.90;;;;;;5054347;28;20225;-77
2024/03/12 01:54:16;;;;;;;13.77;12.38;;;11.50;99.90;;;;;;5054848;28;20312;-77
2024/03/12 01:56:43;;;;;;;17.35;14.07;;;11.50;99.90;;;;;;5055012;28;20230;-77
2024/03/12 01:59:11;;;;;;;19.05;15.43;;;11.50;99.90;;;;;;5054518;28;20294;-77
2024/03/12 02:01:38;;;;;;;19.45;15.45;;;11.50;99.90;;;;;;5055017;28;20564;-77
2024/03/12 02:04:06;;;;;;;15.40;13.63;;;11.40;99.90;;;;;;5053902;28;20232;-77
2024/03/12 02:06:33;;;;;;;14.23;12.82;;;11.40;99.90;;;;;;5054499;28;20307;-77
2024/03/12 02:09:03;;;;;;;14.82;11.63;;;11.40;99.90;;;;;;5053223;28;20225;-77
2024/03/12 02:11:30;;;;;;;15.57;12.73;;;11.40;99.90;;;;;;5054589;28;20303;-77
2024/03/12 02:13:57;;;;;;;17.02;15.18;;;11.40;99.90;;;;;;5052962;28;20580;-77
2024/03/12 02:16:25;;;;;;;17.45;15.65;;;11.30;99.90;;;;;;5050361;28;20236;-77
2024/03/12 02:18:52;;;;;;;17.33;14.90;;;11.30;99.90;;;;;;5033236;28;20218;-77
2024/03/12 02:21:19;;;;;;;36.03;27.38;;;11.30;99.90;;;;;;5034586;28;20308;-77
2024/03/12 02:23:48;;;;;;;24.55;22.00;;;11.30;99.90;;;;;;5034388;28;20237;-77
2024/03/12 02:26:15;;;;;;;20.60;17.50;;;11.30;99.90;;;;;;5033960;28;20217;-77
2024/03/12 02:28:43;;;;;;;17.17;14.80;;;11.30;99.90;;;;;;5034403;28;20295;-77
2024/03/12 02:31:12;;;;;;;15.30;13.38;;;11.30;99.90;;;;;;5033591;28;25142;-77
2024/03/12 02:33:40;;;;;;;22.98;15.23;;;11.30;99.90;;;;;;5034314;28;20226;-77
2024/03/12 02:36:09;;;;;;;18.23;15.93;;;11.30;99.90;;;;;;5033694;28;20690;-77
2024/03/12 02:38:38;;;;;;;20.13;17.63;;;11.20;99.90;;;;;;5034013;28;20698;-77
2024/03/12 02:41:07;;;;;;;18.63;16.70;;;11.20;99.90;;;;;;5033469;28;20291;-77
2024/03/12 02:43:34;;;;;;;24.30;19.10;;;11.20;99.90;;;;;;5034192;28;20225;-77
2024/03/12 02:46:01;;;;;;;21.02;18.83;;;11.20;99.90;;;;;;5033593;28;20253;-76
2024/03/12 02:48:29;;;;;;;18.30;16.50;;;11.20;99.90;;;;;;5033644;28;20240;-77
2024/03/12 02:50:56;;;;;;;17.70;15.90;;;11.20;99.90;;;;;;5033233;28;20229;-77
2024/03/12 02:53:24;;;;;;;17.10;15.38;;;11.10;99.90;;;;;;5034128;28;20221;-77
2024/03/12 02:55:52;;;;;;;18.27;16.48;;;11.10;99.90;;;;;;5034053;28;20678;-77
2024/03/12 02:58:25;;;;;;;22.45;17.52;;;11.20;99.90;;;;;;5033612;28;20324;-77
2024/03/12 03:00:53;;;;;;;20.65;17.45;;;11.20;99.90;;;;;;5033983;28;20280;-77
2024/03/12 03:03:21;;;;;;;21.05;17.05;;;11.20;99.90;;;;;;5033404;28;20310;-77
2024/03/12 03:05:48;;;;;;;21.83;16.42;;;11.10;99.90;;;;;;5033752;28;20229;-77
2024/03/12 03:08:16;;;;;;;22.05;17.08;;;11.10;99.90;;;;;;5033194;28;20232;-77
2024/03/12 03:10:43;;;;;;;19.95;16.27;;;11.20;99.90;;;;;;5033565;28;20227;-77
2024/03/12 03:13:10;;;;;;;16.70;14.10;;;11.10;99.90;;;;;;5033027;28;20226;-77
2024/03/12 03:15:39;;;;;;;15.90;14.20;;;11.10;99.90;;;;;;5033668;28;20595;-77
2024/03/12 03:18:06;;;;;;;16.90;15.10;;;11.20;99.90;;;;;;5032996;28;20221;-77
2024/03/12 03:20:34;;;;;;;15.55;13.95;;;11.10;99.90;;;;;;5033601;28;20232;-77
2024/03/12 03:23:01;;;;;;;16.50;13.35;;;11.10;99.90;;;;;;5032864;28;20221;-77
2024/03/12 03:25:28;;;;;;;14.07;12.35;;;11.10;99.90;;;;;;5033509;28;20548;-77
2024/03/12 03:27:55;;;;;;;13.18;11.88;;;11.10;99.90;;;;;;5033412;28;20674;-77
2024/03/12 03:30:22;;;;;;;13.50;11.77;;;11.10;99.90;;;;;;5032719;28;20236;-77
2024/03/12 03:32:50;;;;;;;12.63;11.25;;;11.10;99.90;;;;;;5023228;28;20332;-77
2024/03/12 03:35:17;;;;;;;12.13;10.82;;;11.10;99.90;;;;;;5032328;28;20308;-77
2024/03/12 03:37:45;;;;;;;12.20;10.90;;;11.10;99.90;;;;;;5033357;28;20533;-77
2024/03/12 03:40:22;;;;;;;11.57;10.48;;;11.10;99.90;;;;;;5032394;28;20218;-78
2024/03/12 03:42:50;;;;;;;12.32;11.13;;;11.10;99.90;;;;;;5033369;28;20232;-78
2024/03/12 03:45:18;;;;;;;10.25;9.35;;;11.20;99.90;;;;;;5032867;28;20701;-77
2024/03/12 03:47:45;;;;;;;11.52;10.32;;;11.10;99.90;;;;;;5033289;28;20225;-77
2024/03/12 03:50:13;;;;;;;10.80;9.70;;;11.20;99.90;;;;;;5032740;28;20232;-77
2024/03/12 03:52:40;;;;;;;12.05;10.80;;;11.10;99.90;;;;;;5033086;28;20221;-77
2024/03/12 03:55:09;;;;;;;10.48;9.43;;;11.10;99.90;;;;;;5032589;28;20585;-76
2024/03/12 03:57:36;;;;;;;10.63;9.52;;;11.10;99.90;;;;;;5033217;28;20344;-77
2024/03/12 04:00:12;;;;;;;9.45;8.45;;;11.10;99.90;;;;;;5032681;28;20237;-77
2024/03/12 04:02:39;;;;;;;9.60;8.70;;;11.10;99.90;;;;;;5033167;28;20866;-77
2024/03/12 04:05:07;;;;;;;9.43;8.55;;;11.10;99.90;;;;;;5032377;28;20745;-77
2024/03/12 04:07:35;;;;;;;9.57;8.73;;;11.10;99.90;;;;;;5033151;28;20559;-77
2024/03/12 04:10:02;;;;;;;9.98;8.98;;;11.10;99.90;;;;;;5033014;28;20236;-76
2024/03/12 04:12:30;;;;;;;9.95;8.95;;;11.10;99.90;;;;;;5032294;28;20607;-77
2024/03/12 04:14:58;;;;;;;9.75;8.68;;;11.10;99.90;;;;;;5032927;28;20312;-77
2024/03/12 04:17:25;;;;;;;8.20;7.40;;;11.10;99.90;;;;;;5032596;28;20225;-77
2024/03/12 04:19:56;;;;;;;9.20;7.85;;;11.00;99.90;;;;;;5032614;28;20256;-77
2024/03/12 04:22:23;;;;;;;8.70;7.45;;;11.00;99.90;;;;;;5032471;28;20229;-77
2024/03/12 04:24:51;;;;;;;9.15;8.00;;;11.00;99.90;;;;;;5032427;28;20251;-76
2024/03/12 04:27:18;;;;;;;7.47;6.75;;;11.00;99.90;;;;;;5032589;28;20221;-76
2024/03/12 04:29:45;;;;;;;8.30;7.60;;;11.00;99.90;;;;;;5033274;28;20742;-77
2024/03/12 04:32:12;;;;;;;7.80;7.10;;;11.10;99.90;;;;;;5035290;28;20256;-76
2024/03/12 04:34:39;;;;;;;8.20;7.25;;;11.10;99.90;;;;;;5036691;28;20667;-76
2024/03/12 04:37:07;;;;;;;8.77;7.97;;;11.10;99.90;;;;;;5036664;28;20225;-76
2024/03/12 04:39:35;;;;;;;6.90;6.20;;;11.10;99.90;;;;;;5035808;28;20228;-76
2024/03/12 04:42:06;;;;;;;7.88;6.63;;;11.10;99.90;;;;;;5036570;28;20248;-76
2024/03/12 04:44:33;;;;;;;7.88;7.18;;;11.10;99.90;;;;;;5035879;28;20232;-77
2024/03/12 04:47:00;;;;;;;6.78;6.28;;;11.10;99.90;;;;;;5036654;28;20304;-76
2024/03/12 04:49:30;;;;;;;6.78;6.18;;;11.10;99.90;;;;;;5035392;28;20239;-76
2024/03/12 04:51:57;;;;;;;8.15;7.32;;;11.10;99.90;;;;;;5036563;28;20731;-76
2024/03/12 04:54:24;;;;;;;6.82;6.22;;;11.10;99.90;;;;;;5035404;28;20229;-77
2024/03/12 04:56:51;;;;;;;6.07;5.35;;;11.10;99.90;;;;;;5036498;28;20599;-77
2024/03/12 04:59:19;;;;;;;7.53;6.13;;;11.10;99.90;;;;;;5035517;28;20233;-77
2024/03/12 05:01:48;;;;;;;6.28;5.75;;;11.10;99.90;;;;;;5035973;28;20221;-76
2024/03/12 05:04:16;;;;;;;7.07;6.38;;;11.10;99.90;;;;;;5035412;28;20695;-77
2024/03/12 05:06:43;;;;;;;8.35;7.50;;;11.10;99.90;;;;;;5035769;28;20226;-76
2024/03/12 05:09:10;;;;;;;8.88;7.60;;;11.10;99.90;;;;;;5035057;28;20226;-77
2024/03/12 05:11:37;;;;;;;7.18;6.38;;;11.00;99.90;;;;;;5035721;28;20623;-76
2024/03/12 05:14:05;;;;;;;7.53;6.90;;;11.00;99.90;;;;;;5035688;28;20233;-77
2024/03/12 05:16:34;;;;;;;7.85;7.10;;;11.00;99.90;;;;;;5035369;28;20351;-76
2024/03/12 05:19:01;;;;;;;8.15;7.38;;;11.00;99.90;;;;;;5035666;28;20244;-77
2024/03/12 05:21:28;;;;;;;7.10;6.50;;;11.00;99.90;;;;;;5034984;28;20229;-77
2024/03/12 05:23:56;;;;;;;11.25;9.10;;;11.00;99.90;;;;;;5035549;28;20229;-76
2024/03/12 05:26:26;;;;;;;10.23;9.23;;;11.00;99.90;;;;;;5035288;28;20233;-77
2024/03/12 05:28:54;;;;;;;9.90;8.65;;;11.00;99.90;;;;;;5035464;28;20225;-77
2024/03/12 05:31:31;;;;;;;14.45;11.43;;;11.00;99.90;;;;;;5034780;28;20570;-77
2024/03/12 05:34:01;;;;;;;15.80;12.38;;;11.00;99.90;;;;;;5035253;28;20705;-77
2024/03/12 05:36:40;;;;;;;13.25;10.90;;;11.00;99.90;;;;;;5034954;28;20229;-76
2024/03/12 05:39:18;;;;;;;14.05;11.13;;;11.00;99.90;;;;;;5035474;28;20243;-76
2024/03/12 05:41:49;;;;;;;17.77;11.45;;;11.00;99.90;;;;;;5034919;28;20216;-77
2024/03/12 05:49:48;;;;;;;10.90;8.80;;;11.00;99.90;;;;;;5017524;28;20307;-76
2024/03/12 05:52:15;;;;;;;10.90;8.63;;;11.00;99.90;;;;;;5035294;28;20232;-76
2024/03/12 05:54:42;;;;;;;8.88;8.02;;;11.00;99.90;;;;;;5034611;28;20694;-76
2024/03/12 05:57:09;;;;;;;9.85;8.85;;;11.00;99.90;;;;;;5034856;28;20300;-76
2024/03/12 05:59:39;;;;;;;9.05;8.13;;;11.00;99.90;;;;;;5034829;28;20229;-76
2024/03/12 06:02:06;;;;;;;8.88;7.97;;;11.00;99.90;;;;;;5034236;28;20300;-76
2024/03/12 06:04:33;;;;;;;10.82;8.93;;;11.00;99.90;;;;;;5034761;28;20221;-76
2024/03/12 06:07:02;;;;;;;8.73;7.82;;;11.00;99.90;;;;;;5034298;28;20221;-76
2024/03/12 06:09:29;;;;;;;9.07;8.25;;;11.00;99.90;;;;;;5034594;28;20233;-76
2024/03/12 06:11:57;;;;;;;8.07;7.38;;;11.00;99.90;;;;;;5034032;28;20217;-76
2024/03/12 06:14:26;;;;;;;8.43;7.63;;;11.00;99.90;;;;;;5034548;28;20233;-76
2024/03/12 06:16:53;;;;;;;8.45;7.65;;;11.10;99.90;;;;;;5033420;28;20225;-76
2024/03/12 06:19:20;;;;;;;7.47;6.88;;;11.10;99.90;;;;;;5034521;28;20305;-76
2024/03/12 06:21:47;;;;;;;8.45;7.55;;;11.10;99.90;;;;;;5033714;28;20217;-77
2024/03/12 06:24:16;;;;;;;7.93;7.20;;;11.10;99.90;;;;;;5034334;28;20312;-76
2024/03/12 06:26:43;;;;;;;6.88;6.22;;;11.10;99.90;;;;;;5034691;28;20620;-76
2024/03/12 06:29:11;;;;;;;6.88;6.18;;;11.10;99.90;;;;;;5033445;28;20549;-76
2024/03/12 06:31:40;;;;;;;6.93;6.32;;;11.10;99.90;;;;;;5034129;28;20214;-76
2024/03/12 06:34:07;;;;;;;7.80;7.00;;;11.20;99.90;;;;;;5033788;28;20235;-76
2024/03/12 06:36:35;;;;;;;8.10;7.30;;;11.20;99.90;;;;;;5034528;28;20359;-76
2024/03/12 06:39:07;;;;;;;8.55;7.25;;;11.20;99.90;;;;;;5033490;28;20233;-76
2024/03/12 06:41:36;;;;;;;7.88;7.18;;;11.20;99.90;;;;;;5033677;28;20225;-76
2024/03/12 06:44:07;;;;;;;6.93;6.18;;;11.20;99.90;;;;;;5021539;28;20628;-76
2024/03/12 06:46:34;;;;;;;8.25;7.32;;;11.30;99.90;;;;;;5032978;28;20295;-76
2024/03/12 06:49:09;;;;;;;7.97;7.28;;;11.30;99.90;;;;;;5033049;28;20320;-76
2024/03/12 06:51:36;;;;;;;7.90;7.20;;;11.30;99.90;;;;;;5033793;28;20316;-77
2024/03/12 06:54:04;;;;;;;7.80;7.20;;;11.30;99.90;;;;;;5033057;28;20229;-76
2024/03/12 06:56:34;;;;;;;7.40;6.40;;;11.30;99.90;;;;;;5033870;28;20338;-76
2024/03/12 06:59:02;;;;;;;6.63;5.88;;;11.40;99.90;;;;;;5033816;28;20239;-76
2024/03/12 07:01:31;;;;;;;9.27;7.60;;;11.40;99.90;;;;;;5033767;28;20228;-75
2024/03/12 07:03:59;;;;;;;8.23;6.95;;;11.40;99.90;;;;;;5033252;28;20222;-76
2024/03/12 07:06:27;;;;;;;8.45;7.65;;;11.50;99.90;;;;;;5032803;28;20273;-76
2024/03/12 07:09:01;;;;;;;7.28;6.70;;;11.50;99.90;;;;;;5033548;28;20222;-76
2024/03/12 07:11:28;;;;;;;7.95;7.25;;;11.50;99.90;;;;;;5032785;28;20231;-77
2024/03/12 07:14:02;;;;;;;7.82;7.13;;;11.60;99.90;;;;;;5033659;28;20225;-77
2024/03/12 07:16:30;;;;;;;7.25;6.55;;;11.60;99.90;;;;;;5033361;28;20221;-77
2024/03/12 07:18:58;;;;;;;6.18;5.60;;;11.70;99.90;;;;;;5033650;28;20225;-77
2024/03/12 07:21:25;;;;;;;6.40;5.80;;;11.70;99.90;;;;;;5032707;28;20260;-77
2024/03/12 07:23:53;;;;;;;7.53;6.82;;;11.70;99.90;;;;;;5033436;28;20301;-77
2024/03/12 07:26:20;;;;;;;6.55;5.95;;;11.80;99.90;;;;;;5032879;28;20796;-77
2024/03/12 07:28:50;;;;;;;9.25;7.10;;;11.90;99.90;;;;;;5033596;28;20255;-77
2024/03/12 07:31:17;;;;;;;8.88;7.97;;;11.90;99.90;;;;;;5033024;28;20229;-76
2024/03/12 07:33:45;;;;;;;12.00;8.00;;;12.00;99.90;;;;;;5032610;28;20229;-77
2024/03/12 07:36:13;;;;;;;8.05;7.25;;;12.00;99.90;;;;;;5022302;28;20316;-77
2024/03/12 07:38:40;;;;;;;9.73;7.05;;;12.00;99.90;;;;;;5033405;28;20249;-76
2024/03/12 07:41:08;;;;;;;11.73;8.10;;;12.10;99.90;;;;;;5033033;28;20683;-76
2024/03/12 07:43:36;;;;;;;11.00;8.07;;;12.20;99.90;;;;;;5032614;28;20241;-76
2024/03/12 07:46:03;;;;;;;7.75;6.93;;;12.20;99.90;;;;;;5033074;28;20304;-76
2024/03/12 07:48:30;;;;;;;10.45;8.18;;;12.30;99.90;;;;;;5032336;28;20295;-76
2024/03/12 07:50:59;;;;;;;13.93;10.10;;;12.30;99.90;;;;;;5033106;28;20217;-78
2024/03/12 07:53:28;;;;;;;10.50;9.15;;;12.40;99.90;;;;;;5032460;28;20232;-78
2024/03/12 07:56:00;;;;;;;11.85;9.75;;;12.40;99.90;;;;;;5032984;28;20213;-78
2024/03/12 07:58:28;;;;;;;14.73;10.68;;;12.50;99.90;;;;;;5032424;28;20235;-78
2024/03/12 08:00:55;;;;;;;10.63;9.25;;;12.50;99.90;;;;;;5033130;28;20228;-76
2024/03/12 08:03:23;;;;;;;9.88;8.50;;;12.60;99.90;;;;;;5031879;28;20320;-76
2024/03/12 08:05:52;;;;;;;11.40;9.27;;;12.60;99.90;;;;;;5032766;28;20304;-76
2024/03/12 08:08:21;;;;;;;11.40;8.07;;;12.70;99.90;;;;;;5036619;28;20386;-76
2024/03/12 08:10:48;;;;;;;9.60;8.63;;;12.70;99.90;;;;;;5037186;28;20245;-76
2024/03/12 08:13:15;;;;;;;8.95;8.07;;;12.80;99.90;;;;;;5036405;28;20240;-76
2024/03/12 08:15:42;;;;;;;10.33;9.30;;;12.80;99.90;;;;;;5036917;28;20670;-76
2024/03/12 08:18:10;;;;;;;9.00;8.10;;;12.90;99.90;;;;;;5036625;28;20471;-76
2024/03/12 08:20:37;;;;;;;8.35;7.13;;;12.90;99.90;;;;;;5036261;28;20542;-76
2024/03/12 08:23:05;;;;;;;8.73;7.93;;;12.90;99.90;;;;;;5036089;28;20614;-76
2024/03/12 08:25:33;;;;;;;7.53;6.80;;;13.00;99.90;;;;;;5036321;28;20228;-76
2024/03/12 08:28:01;;;;;;;6.80;6.20;;;13.00;99.90;;;;;;5036555;28;20232;-76
2024/03/12 08:30:28;;;;;;;7.63;6.83;;;13.10;99.90;;;;;;5036660;28;20691;-75
2024/03/12 08:32:56;;;;;;;8.60;7.25;;;13.10;99.90;;;;;;5035955;28;20545;-76
2024/03/12 08:35:23;;;;;;;9.77;8.90;;;13.10;99.90;;;;;;5036590;28;20225;-76
2024/03/12 08:37:50;;;;;;;9.80;8.90;;;13.20;99.90;;;;;;5036071;28;20463;-76
2024/03/12 08:40:18;;;;;;;11.07;8.25;;;13.20;99.90;;;;;;5036277;28;20221;-76
2024/03/12 08:42:46;;;;;;;12.75;7.68;;;13.20;99.90;;;;;;5036487;28;20225;-76
2024/03/12 08:45:14;;;;;;;8.23;7.57;;;13.20;99.90;;;;;;5035703;28;20229;-75
2024/03/12 08:47:41;;;;;;;10.47;9.37;;;13.30;99.90;;;;;;5036200;28;20530;-78
2024/03/12 08:50:10;;;;;;;9.18;8.27;;;13.30;99.90;;;;;;5035702;28;20476;-76
2024/03/12 08:52:37;;;;;;;8.93;7.57;;;13.30;99.90;;;;;;5036246;28;20232;-75
2024/03/12 08:55:04;;;;;;;11.15;8.80;;;13.30;99.90;;;;;;5026851;28;20225;-78
2024/03/12 08:57:31;;;;;;;8.40;7.43;;;13.30;99.90;;;;;;5036045;28;20217;-78
2024/03/12 09:00:03;;;;;;;10.50;8.88;;;13.40;99.90;;;;;;5035534;28;20218;-78
2024/03/12 09:02:30;;;;;;;8.35;7.63;;;13.40;99.90;;;;;;5035671;28;20248;-78
2024/03/12 09:05:02;;;;;;;7.60;6.88;;;13.40;99.90;;;;;;5035584;28;20232;-77
2024/03/12 09:07:29;;;;;;;8.00;7.30;;;13.50;99.90;;;;;;5035945;28;20304;-78
2024/03/12 09:09:58;;;;;;;9.30;7.30;;;13.50;99.90;;;;;;5034985;28;20483;-77
2024/03/12 09:12:26;;;;;;;9.90;8.15;;;13.50;99.90;;;;;;5035643;28;20225;-78
2024/03/12 09:14:53;;;;;;;8.33;7.63;;;13.60;99.90;;;;;;5035908;28;20235;-78
2024/03/12 09:17:21;;;;;;;12.40;8.33;;;13.60;99.90;;;;;;5035765;28;20452;-78
2024/03/12 09:19:52;;;;;;;8.07;6.80;;;13.60;99.90;;;;;;5035473;28;20464;-78
2024/03/12 09:22:20;;;;;;;7.40;6.70;;;13.60;99.90;;;;;;5034855;28;20503;-77
2024/03/12 09:24:47;;;;;;;8.50;6.80;;;13.60;99.90;;;;;;5034665;28;20495;-76
2024/03/12 09:27:14;;;;;;;7.60;6.40;;;13.70;99.90;;;;;;5035187;28;20464;-76
2024/03/12 09:29:42;;;;;;;8.97;8.07;;;13.70;99.90;;;;;;5035645;28;20483;-76
2024/03/12 09:32:09;;;;;;;9.13;7.97;;;13.70;99.90;;;;;;5034620;28;20877;-75
2024/03/12 09:34:39;;;;;;;10.53;7.77;;;13.70;99.90;;;;;;5035630;28;20478;-76
2024/03/12 09:37:07;;;;;;;7.63;6.97;;;13.70;99.90;;;;;;5035112;28;20468;-76
2024/03/12 09:39:36;;;;;;;7.37;6.60;;;13.80;99.90;;;;;;5035575;28;20459;-76
2024/03/12 09:42:10;;;;;;;10.57;8.20;;;13.80;99.90;;;;;;5034921;28;20475;-76
2024/03/12 09:44:38;;;;;;;8.63;7.83;;;13.90;99.90;;;;;;5034503;28;20468;-76
2024/03/12 09:47:05;;;;;;;9.27;8.37;;;14.00;99.90;;;;;;5034996;28;20464;-76
2024/03/12 09:49:34;;;;;;;9.67;8.57;;;14.00;99.90;;;;;;5034995;28;20480;-76
2024/03/12 09:52:06;;;;;;;10.37;8.23;;;14.10;99.90;;;;;;5034460;28;20507;-76
2024/03/12 09:54:34;;;;;;;8.90;7.70;;;14.10;99.90;;;;;;5035022;28;20848;-76
2024/03/12 09:57:02;;;;;;;7.90;7.20;;;14.20;99.90;;;;;;5034809;28;20965;-76
2024/03/12 09:59:30;;;;;;;10.90;9.97;;;14.20;99.90;;;;;;5035201;28;20465;-76
2024/03/12 10:02:01;;;;;;;8.50;7.37;;;14.20;99.90;;;;;;5035026;28;20479;-76
2024/03/12 10:04:28;;;;;;;11.90;9.50;;;14.30;99.90;;;;;;5034446;28;20578;-76
2024/03/12 10:06:55;;;;;;;9.57;8.40;;;14.30;99.90;;;;;;5034905;28;20563;-76
2024/03/12 10:09:27;;;;;;;12.73;11.57;;;14.40;99.90;;;;;;5033160;28;20476;-76
2024/03/12 10:11:55;;;;;;;7.63;6.23;;;14.40;99.90;;;;;;5034688;28;20472;-76
2024/03/12 10:14:22;;;;;;;8.63;6.90;;;14.40;99.90;;;;;;5034327;28;20468;-76
2024/03/12 10:16:50;;;;;;;11.83;8.20;;;14.50;99.90;;;;;;5034970;28;20468;-76
2024/03/12 10:19:18;;;;;;;12.10;7.33;;;14.50;99.90;;;;;;5034132;28;20482;-76
2024/03/12 10:21:47;;;;;;;11.00;7.00;;;14.50;99.90;;;;;;5034683;28;20511;-76
2024/03/12 10:24:17;;;;;;;10.03;7.70;;;14.60;99.90;;;;;;5033810;28;20555;-76
2024/03/12 10:26:48;;;;;;;8.67;7.27;;;14.60;99.90;;;;;;5033703;28;20483;-76
2024/03/12 10:29:18;;;;;;;7.93;7.03;;;14.60;99.90;;;;;;5033481;28;20950;-76
2024/03/12 10:31:45;;;;;;;11.90;8.33;;;14.60;99.90;;;;;;5034761;28;20507;-76
2024/03/12 10:34:17;;;;;;;8.57;6.70;;;14.60;99.90;;;;;;5032973;28;20991;-76
2024/03/12 10:36:45;;;;;;;7.87;6.80;;;14.60;99.90;;;;;;5034063;28;20467;-76
2024/03/12 10:39:13;;;;;;;7.10;6.40;;;14.70;99.90;;;;;;5033664;28;20834;-76
2024/03/12 10:41:43;;;;;;;6.73;6.03;;;14.70;99.90;;;;;;5034469;28;20459;-76
2024/03/12 10:44:12;;;;;;;6.40;4.70;;;14.70;99.90;;;;;;5033578;28;20895;-76
2024/03/12 10:46:42;;;;;;;6.37;5.77;;;14.70;99.90;;;;;;5034094;28;20468;-76
2024/03/12 10:49:12;;;;;;;5.90;5.40;;;14.80;99.90;;;;;;5033300;28;20472;-76
2024/03/12 10:51:42;;;;;;;5.20;4.70;;;14.80;99.90;;;;;;5033874;28;20467;-77
2024/03/12 10:54:13;;;;;;;7.60;6.90;;;14.80;99.90;;;;;;5033398;28;20484;-76
2024/03/12 10:56:41;;;;;;;6.70;5.53;;;14.90;99.90;;;;;;5034111;28;20491;-76
2024/03/12 10:59:10;;;;;;;6.60;5.23;;;14.90;99.90;;;;;;5033630;28;20543;-77
2024/03/12 11:01:42;;;;;;;7.37;5.10;;;14.90;99.90;;;;;;5033778;28;20468;-76
2024/03/12 11:04:10;;;;;;;6.30;5.70;;;15.00;99.90;;;;;;5033442;28;20559;-76
2024/03/12 11:06:38;;;;;;;6.70;6.00;;;15.00;99.90;;;;;;5033757;28;20468;-76
2024/03/12 11:09:05;;;;;;;7.53;6.70;;;15.00;99.90;;;;;;5033810;28;20548;-76
2024/03/12 11:11:33;;;;;;;6.97;5.73;;;15.00;99.90;;;;;;5033662;28;20783;-76
2024/03/12 11:14:02;;;;;;;11.90;10.60;;;15.10;99.90;;;;;;5025064;28;20551;-76
2024/03/12 11:16:32;;;;;;;23.57;19.33;;;15.10;99.90;;;;;;5033303;28;20503;-76
2024/03/12 11:19:17;;;;;;;18.30;14.50;;;15.10;99.90;;;;;;5033616;28;20472;-76
2024/03/12 11:21:47;;;;;;;11.07;9.37;;;15.20;99.90;;;;;;5033662;28;20463;-76
2024/03/12 11:24:25;;;;;;;8.50;6.60;;;15.20;99.90;;;;;;5033346;28;20472;-76
2024/03/12 11:26:52;;;;;;;12.00;9.53;;;15.30;99.90;;;;;;5033174;28;20456;-76
2024/03/12 11:29:19;;;;;;;6.53;5.87;;;15.30;99.90;;;;;;5033588;28;20464;-76
2024/03/12 11:31:46;;;;;;;5.23;4.73;;;15.40;99.90;;;;;;5032500;28;20469;-76
2024/03/12 11:34:32;;;;;;;4.57;4.17;;;15.40;99.90;;;;;;5033170;28;20468;-76
2024/03/12 11:37:16;;;;;;;5.93;5.33;;;15.40;99.90;;;;;;5032852;28;20460;-76
2024/03/12 11:39:43;;;;;;;4.70;4.30;;;15.40;99.90;;;;;;5032762;28;20471;-76
2024/03/12 11:42:11;;;;;;;5.07;4.57;;;15.50;99.90;;;;;;5032576;28;20491;-76
2024/03/12 11:44:53;;;;;;;7.07;5.50;;;15.50;99.90;;;;;;5032803;28;20479;-76
2024/03/12 11:47:31;;;;;;;6.40;5.00;;;15.60;99.90;;;;;;5033346;28;20468;-76
2024/03/12 11:50:01;;;;;;;7.63;6.80;;;15.60;99.90;;;;;;5032762;28;20827;-76
2024/03/12 11:52:30;;;;;;;7.67;6.80;;;15.60;99.90;;;;;;5033622;28;20472;-77
2024/03/12 11:54:57;;;;;;;7.87;6.40;;;15.60;99.90;;;;;;5032903;28;20464;-77
2024/03/12 11:57:26;;;;;;;5.90;5.30;;;15.60;99.90;;;;;;5033752;28;20472;-77
2024/03/12 11:59:54;;;;;;;4.97;4.40;;;15.70;99.90;;;;;;5032960;28;20552;-77
2024/03/12 12:02:23;;;;;;;5.53;5.00;;;15.70;99.90;;;;;;5033062;28;20468;-76
2024/03/12 12:04:51;;;;;;;6.63;6.03;;;15.80;99.90;;;;;;5032314;28;20472;-76
2024/03/12 12:07:22;;;;;;;7.07;6.37;;;15.80;99.90;;;;;;5033360;28;20472;-76
2024/03/12 12:09:50;;;;;;;10.70;8.07;;;15.80;99.90;;;;;;5032910;28;20460;-76
2024/03/12 12:12:17;;;;;;;6.50;5.90;;;15.80;99.90;;;;;;5033037;28;20518;-76
2024/03/12 12:14:47;;;;;;;5.70;5.13;;;15.80;99.90;;;;;;5031804;28;20472;-77
2024/03/12 12:17:21;;;;;;;5.80;4.90;;;15.80;99.90;;;;;;5033152;28;20842;-77
2024/03/12 12:20:04;;;;;;;7.80;7.00;;;15.90;99.90;;;;;;5031688;28;20502;-77
2024/03/12 12:22:34;;;;;;;12.80;8.00;;;15.90;99.90;;;;;;5032422;28;20476;-77
2024/03/12 12:25:02;;;;;;;10.83;7.60;;;16.00;99.90;;;;;;5032548;28;20460;-77
2024/03/12 12:27:32;;;;;;;12.33;8.60;;;16.00;99.90;;;;;;5033173;28;20472;-77
2024/03/12 12:29:59;;;;;;;19.70;12.60;;;16.00;99.90;;;;;;5031771;28;20518;-77
2024/03/12 12:32:29;;;;;;;12.17;9.53;;;16.00;99.90;;;;;;5032467;28;20615;-77
2024/03/12 12:34:56;;;;;;;11.20;7.47;;;16.10;99.80;;;;;;5032412;28;20483;-77
2024/03/12 12:37:24;;;;;;;11.80;7.40;;;16.10;99.60;;;;;;5032104;28;20592;-77
2024/03/12 12:39:52;;;;;;;7.73;6.70;;;16.20;99.60;;;;;;5032238;28;20483;-77
2024/03/12 12:42:21;;;;;;;8.47;6.87;;;16.20;99.50;;;;;;5032841;28;20472;-77
2024/03/12 12:44:53;;;;;;;7.73;6.93;;;16.30;99.60;;;;;;5032055;28;20496;-77
2024/03/12 12:47:22;;;;;;;6.17;5.67;;;16.30;99.40;;;;;;5032695;28;20487;-77
2024/03/12 12:49:53;;;;;;;8.80;7.73;;;16.30;99.20;;;;;;5031861;28;20479;-77